ADDS METAR Data

Data at: 0516 UTC 19 Jan 2018

METAR for:CYCX (Gagetown (MIL), NB, CN)
Text:CYCX 190500Z 26003KT 15SM SKC M12/M15 A2981 RMK DA-3011FT FROIN SLP099
Temperature:-12.0°C ( 10°F)
Dewpoint:-15.0°C ( 5°F) [RH = 78%]
Pressure (altimeter):29.81 inches Hg (1009.6 mb) [Sea level pressure: 1009.9 mb]
Winds:from the W (260 degrees) at 3 MPH (3 knots; 1.5 m/s)
Visibility: 15 sm ( 24 km)
Ceiling:at least 12,000 feet AGL
Clouds:clear skies